sensor_id;sensor_type;location;lat;lon;timestamp;temperature;humidity
7708;DHT22;3896;48.758;8.888;2022-07-23T00:00:09;25.40;59.60
7708;DHT22;3896;48.758;8.888;2022-07-23T00:02:34;25.40;59.50
7708;DHT22;3896;48.758;8.888;2022-07-23T00:05:00;25.40;59.70
7708;DHT22;3896;48.758;8.888;2022-07-23T00:07:26;25.30;59.80
7708;DHT22;3896;48.758;8.888;2022-07-23T00:09:51;25.30;60.00
7708;DHT22;3896;48.758;8.888;2022-07-23T00:12:17;25.30;60.00
7708;DHT22;3896;48.758;8.888;2022-07-23T00:14:43;25.30;60.20
7708;DHT22;3896;48.758;8.888;2022-07-23T00:17:08;25.30;60.20
7708;DHT22;3896;48.758;8.888;2022-07-23T00:19:34;25.30;60.40
7708;DHT22;3896;48.758;8.888;2022-07-23T00:21:59;25.20;60.20
7708;DHT22;3896;48.758;8.888;2022-07-23T00:24:25;25.20;60.40
7708;DHT22;3896;48.758;8.888;2022-07-23T00:26:51;25.20;60.40
7708;DHT22;3896;48.758;8.888;2022-07-23T00:29:16;25.20;60.50
7708;DHT22;3896;48.758;8.888;2022-07-23T00:31:42;25.20;60.60
7708;DHT22;3896;48.758;8.888;2022-07-23T00:34:07;25.20;60.80
7708;DHT22;3896;48.758;8.888;2022-07-23T00:36:33;25.10;60.80
7708;DHT22;3896;48.758;8.888;2022-07-23T00:38:59;25.10;61.70
7708;DHT22;3896;48.758;8.888;2022-07-23T00:41:24;25.10;61.00
7708;DHT22;3896;48.758;8.888;2022-07-23T00:43:50;25.00;61.70
7708;DHT22;3896;48.758;8.888;2022-07-23T00:46:22;25.00;61.20
7708;DHT22;3896;48.758;8.888;2022-07-23T00:48:48;25.00;61.60
7708;DHT22;3896;48.758;8.888;2022-07-23T00:51:17;24.90;61.90
7708;DHT22;3896;48.758;8.888;2022-07-23T00:53:43;24.90;62.10
7708;DHT22;3896;48.758;8.888;2022-07-23T00:56:10;24.90;61.90
7708;DHT22;3896;48.758;8.888;2022-07-23T00:58:36;24.90;61.80
7708;DHT22;3896;48.758;8.888;2022-07-23T01:01:04;24.90;61.60
7708;DHT22;3896;48.758;8.888;2022-07-23T01:03:30;24.90;61.20
7708;DHT22;3896;48.758;8.888;2022-07-23T01:05:55;24.90;60.90
7708;DHT22;3896;48.758;8.888;2022-07-23T01:08:22;24.90;61.60
7708;DHT22;3896;48.758;8.888;2022-07-23T01:10:48;24.90;61.00
7708;DHT22;3896;48.758;8.888;2022-07-23T01:13:14;24.80;61.10
7708;DHT22;3896;48.758;8.888;2022-07-23T01:15:39;24.80;60.90
7708;DHT22;3896;48.758;8.888;2022-07-23T01:18:07;24.80;60.90
7708;DHT22;3896;48.758;8.888;2022-07-23T01:20:33;24.80;61.60
7708;DHT22;3896;48.758;8.888;2022-07-23T01:22:58;24.80;61.80
7708;DHT22;3896;48.758;8.888;2022-07-23T01:25:24;24.80;62.10
7708;DHT22;3896;48.758;8.888;2022-07-23T01:27:52;24.70;62.20
7708;DHT22;3896;48.758;8.888;2022-07-23T01:30:18;24.70;62.60
7708;DHT22;3896;48.758;8.888;2022-07-23T01:32:44;24.70;62.90
7708;DHT22;3896;48.758;8.888;2022-07-23T01:35:10;24.60;63.30
7708;DHT22;3896;48.758;8.888;2022-07-23T01:37:36;24.60;63.70
7708;DHT22;3896;48.758;8.888;2022-07-23T01:40:03;24.60;63.10
7708;DHT22;3896;48.758;8.888;2022-07-23T01:42:29;24.50;62.80
7708;DHT22;3896;48.758;8.888;2022-07-23T01:44:55;24.50;62.50
7708;DHT22;3896;48.758;8.888;2022-07-23T01:47:21;24.40;62.60
7708;DHT22;3896;48.758;8.888;2022-07-23T01:49:46;24.40;62.80
7708;DHT22;3896;48.758;8.888;2022-07-23T01:52:12;24.40;63.20
7708;DHT22;3896;48.758;8.888;2022-07-23T01:54:38;24.30;63.00
7708;DHT22;3896;48.758;8.888;2022-07-23T01:57:05;24.20;62.90
7708;DHT22;3896;48.758;8.888;2022-07-23T01:59:31;24.20;63.20
7708;DHT22;3896;48.758;8.888;2022-07-23T02:01:57;24.20;64.20
7708;DHT22;3896;48.758;8.888;2022-07-23T02:04:24;24.10;64.70
7708;DHT22;3896;48.758;8.888;2022-07-23T02:06:50;24.10;65.20
7708;DHT22;3896;48.758;8.888;2022-07-23T02:09:16;24.00;65.70
7708;DHT22;3896;48.758;8.888;2022-07-23T02:11:42;24.00;66.20
7708;DHT22;3896;48.758;8.888;2022-07-23T02:14:08;23.90;67.20
7708;DHT22;3896;48.758;8.888;2022-07-23T02:16:34;23.90;66.70
7708;DHT22;3896;48.758;8.888;2022-07-23T02:18:59;23.90;67.10
7708;DHT22;3896;48.758;8.888;2022-07-23T02:21:25;23.90;67.30
7708;DHT22;3896;48.758;8.888;2022-07-23T02:23:50;23.90;67.30
7708;DHT22;3896;48.758;8.888;2022-07-23T02:26:16;23.80;68.00
7708;DHT22;3896;48.758;8.888;2022-07-23T02:28:42;23.70;67.90
7708;DHT22;3896;48.758;8.888;2022-07-23T02:31:07;23.70;68.50
7708;DHT22;3896;48.758;8.888;2022-07-23T02:33:33;23.60;68.30
7708;DHT22;3896;48.758;8.888;2022-07-23T02:35:59;23.60;68.40
7708;DHT22;3896;48.758;8.888;2022-07-23T02:38:25;23.60;69.10
7708;DHT22;3896;48.758;8.888;2022-07-23T02:40:51;23.50;69.20
7708;DHT22;3896;48.758;8.888;2022-07-23T02:43:17;23.50;69.60
7708;DHT22;3896;48.758;8.888;2022-07-23T02:45:42;23.50;70.00
7708;DHT22;3896;48.758;8.888;2022-07-23T02:48:08;23.40;70.00
7708;DHT22;3896;48.758;8.888;2022-07-23T02:50:34;23.40;69.80
7708;DHT22;3896;48.758;8.888;2022-07-23T02:52:59;23.40;69.90
7708;DHT22;3896;48.758;8.888;2022-07-23T02:55:25;23.40;70.20
7708;DHT22;3896;48.758;8.888;2022-07-23T02:57:51;23.30;70.30
7708;DHT22;3896;48.758;8.888;2022-07-23T03:00:17;23.30;70.80
7708;DHT22;3896;48.758;8.888;2022-07-23T03:02:42;23.30;71.00
7708;DHT22;3896;48.758;8.888;2022-07-23T03:05:08;23.20;71.10
7708;DHT22;3896;48.758;8.888;2022-07-23T03:07:46;23.20;71.20
7708;DHT22;3896;48.758;8.888;2022-07-23T03:10:12;23.10;71.10
7708;DHT22;3896;48.758;8.888;2022-07-23T03:12:37;23.10;71.40
7708;DHT22;3896;48.758;8.888;2022-07-23T03:15:03;23.10;71.60
7708;DHT22;3896;48.758;8.888;2022-07-23T03:17:29;23.00;71.80
7708;DHT22;3896;48.758;8.888;2022-07-23T03:19:55;23.00;71.80
7708;DHT22;3896;48.758;8.888;2022-07-23T03:22:20;23.00;72.10
7708;DHT22;3896;48.758;8.888;2022-07-23T03:24:46;22.90;71.60
7708;DHT22;3896;48.758;8.888;2022-07-23T03:27:26;22.90;71.30
7708;DHT22;3896;48.758;8.888;2022-07-23T03:29:53;22.90;71.50
7708;DHT22;3896;48.758;8.888;2022-07-23T03:32:20;22.80;71.30
7708;DHT22;3896;48.758;8.888;2022-07-23T03:34:46;22.80;71.20
7708;DHT22;3896;48.758;8.888;2022-07-23T03:37:12;22.80;71.20
7708;DHT22;3896;48.758;8.888;2022-07-23T03:39:38;22.70;71.20
7708;DHT22;3896;48.758;8.888;2022-07-23T03:42:04;22.70;71.30
7708;DHT22;3896;48.758;8.888;2022-07-23T03:44:30;22.70;71.70
7708;DHT22;3896;48.758;8.888;2022-07-23T03:46:55;22.70;71.90
7708;DHT22;3896;48.758;8.888;2022-07-23T03:49:21;22.60;71.90
7708;DHT22;3896;48.758;8.888;2022-07-23T03:51:47;22.60;72.30
7708;DHT22;3896;48.758;8.888;2022-07-23T03:54:13;22.60;72.60
7708;DHT22;3896;48.758;8.888;2022-07-23T03:56:38;22.60;72.80
7708;DHT22;3896;48.758;8.888;2022-07-23T03:59:04;22.60;73.50
7708;DHT22;3896;48.758;8.888;2022-07-23T04:01:30;22.60;73.70
7708;DHT22;3896;48.758;8.888;2022-07-23T04:03:56;22.60;73.90
7708;DHT22;3896;48.758;8.888;2022-07-23T04:06:21;22.60;74.00
7708;DHT22;3896;48.758;8.888;2022-07-23T04:08:47;22.60;74.30
7708;DHT22;3896;48.758;8.888;2022-07-23T04:11:13;22.50;74.40
7708;DHT22;3896;48.758;8.888;2022-07-23T04:13:39;22.50;74.90
7708;DHT22;3896;48.758;8.888;2022-07-23T04:16:06;22.50;75.40
7708;DHT22;3896;48.758;8.888;2022-07-23T04:18:31;22.50;75.90
7708;DHT22;3896;48.758;8.888;2022-07-23T04:20:57;22.50;76.20
7708;DHT22;3896;48.758;8.888;2022-07-23T04:23:23;22.50;76.00
7708;DHT22;3896;48.758;8.888;2022-07-23T04:25:49;22.50;76.30
7708;DHT22;3896;48.758;8.888;2022-07-23T04:28:14;22.40;76.40
7708;DHT22;3896;48.758;8.888;2022-07-23T04:30:40;22.40;76.40
7708;DHT22;3896;48.758;8.888;2022-07-23T04:33:06;22.40;75.80
7708;DHT22;3896;48.758;8.888;2022-07-23T04:35:33;22.40;75.40
7708;DHT22;3896;48.758;8.888;2022-07-23T04:37:59;22.30;74.90
7708;DHT22;3896;48.758;8.888;2022-07-23T04:40:25;22.40;75.50
7708;DHT22;3896;48.758;8.888;2022-07-23T04:42:51;22.40;75.00
7708;DHT22;3896;48.758;8.888;2022-07-23T04:45:16;22.40;75.00
7708;DHT22;3896;48.758;8.888;2022-07-23T04:47:42;22.40;74.80
7708;DHT22;3896;48.758;8.888;2022-07-23T04:50:08;22.40;74.60
7708;DHT22;3896;48.758;8.888;2022-07-23T04:52:33;22.40;75.10
7708;DHT22;3896;48.758;8.888;2022-07-23T04:54:59;22.40;74.80
7708;DHT22;3896;48.758;8.888;2022-07-23T04:57:24;22.40;74.60
7708;DHT22;3896;48.758;8.888;2022-07-23T04:59:50;22.40;74.40
7708;DHT22;3896;48.758;8.888;2022-07-23T05:02:16;22.40;74.40
7708;DHT22;3896;48.758;8.888;2022-07-23T05:04:41;22.30;74.40
7708;DHT22;3896;48.758;8.888;2022-07-23T05:07:07;22.30;75.40
7708;DHT22;3896;48.758;8.888;2022-07-23T05:09:33;22.40;74.80
7708;DHT22;3896;48.758;8.888;2022-07-23T05:11:59;22.40;75.50
7708;DHT22;3896;48.758;8.888;2022-07-23T05:14:25;22.40;75.00
7708;DHT22;3896;48.758;8.888;2022-07-23T05:16:51;22.40;75.50
7708;DHT22;3896;48.758;8.888;2022-07-23T05:19:16;22.40;75.60
7708;DHT22;3896;48.758;8.888;2022-07-23T05:21:42;22.50;75.50
7708;DHT22;3896;48.758;8.888;2022-07-23T05:24:07;22.50;75.40
7708;DHT22;3896;48.758;8.888;2022-07-23T05:26:33;22.50;75.50
7708;DHT22;3896;48.758;8.888;2022-07-23T05:28:59;22.50;75.40
7708;DHT22;3896;48.758;8.888;2022-07-23T05:31:24;22.50;75.10
7708;DHT22;3896;48.758;8.888;2022-07-23T05:33:50;22.60;75.70
7708;DHT22;3896;48.758;8.888;2022-07-23T05:36:16;22.60;76.00
7708;DHT22;3896;48.758;8.888;2022-07-23T05:38:41;22.60;75.90
7708;DHT22;3896;48.758;8.888;2022-07-23T05:41:07;22.60;76.20
7708;DHT22;3896;48.758;8.888;2022-07-23T05:43:33;22.70;76.60
7708;DHT22;3896;48.758;8.888;2022-07-23T05:45:58;22.70;76.80
7708;DHT22;3896;48.758;8.888;2022-07-23T05:48:24;22.70;76.80
7708;DHT22;3896;48.758;8.888;2022-07-23T05:50:49;22.70;76.70
7708;DHT22;3896;48.758;8.888;2022-07-23T05:53:15;22.80;76.90
7708;DHT22;3896;48.758;8.888;2022-07-23T05:55:41;22.80;77.40
7708;DHT22;3896;48.758;8.888;2022-07-23T05:58:06;22.80;77.50
7708;DHT22;3896;48.758;8.888;2022-07-23T06:00:32;22.90;78.10
7708;DHT22;3896;48.758;8.888;2022-07-23T06:02:58;22.90;77.70
7708;DHT22;3896;48.758;8.888;2022-07-23T06:05:24;22.90;77.30
7708;DHT22;3896;48.758;8.888;2022-07-23T06:07:49;23.00;77.20
7708;DHT22;3896;48.758;8.888;2022-07-23T06:10:16;23.00;77.10
7708;DHT22;3896;48.758;8.888;2022-07-23T06:12:41;23.00;76.90
7708;DHT22;3896;48.758;8.888;2022-07-23T06:15:08;23.00;77.20
7708;DHT22;3896;48.758;8.888;2022-07-23T06:17:34;23.00;76.80
7708;DHT22;3896;48.758;8.888;2022-07-23T06:19:59;23.10;76.60
7708;DHT22;3896;48.758;8.888;2022-07-23T06:22:25;23.10;76.40
7708;DHT22;3896;48.758;8.888;2022-07-23T06:24:51;23.10;76.10
7708;DHT22;3896;48.758;8.888;2022-07-23T06:27:17;23.20;76.00
7708;DHT22;3896;48.758;8.888;2022-07-23T06:29:43;23.20;76.40
7708;DHT22;3896;48.758;8.888;2022-07-23T06:32:09;23.30;76.30
7708;DHT22;3896;48.758;8.888;2022-07-23T06:34:35;23.30;75.00
7708;DHT22;3896;48.758;8.888;2022-07-23T06:37:00;23.40;74.40
7708;DHT22;3896;48.758;8.888;2022-07-23T06:39:26;23.40;74.30
7708;DHT22;3896;48.758;8.888;2022-07-23T06:41:52;23.50;74.30
7708;DHT22;3896;48.758;8.888;2022-07-23T06:44:18;23.60;73.90
7708;DHT22;3896;48.758;8.888;2022-07-23T06:46:44;23.60;73.00
7708;DHT22;3896;48.758;8.888;2022-07-23T06:49:09;23.60;73.00
7708;DHT22;3896;48.758;8.888;2022-07-23T06:51:35;23.70;72.10
7708;DHT22;3896;48.758;8.888;2022-07-23T06:54:01;23.70;72.40
7708;DHT22;3896;48.758;8.888;2022-07-23T06:56:27;23.70;72.60
7708;DHT22;3896;48.758;8.888;2022-07-23T06:58:53;23.70;72.00
7708;DHT22;3896;48.758;8.888;2022-07-23T07:01:18;23.70;71.40
7708;DHT22;3896;48.758;8.888;2022-07-23T07:03:44;23.70;72.00
7708;DHT22;3896;48.758;8.888;2022-07-23T07:06:09;23.70;73.40
7708;DHT22;3896;48.758;8.888;2022-07-23T07:08:35;23.70;75.70
7708;DHT22;3896;48.758;8.888;2022-07-23T07:11:01;23.70;77.20
7708;DHT22;3896;48.758;8.888;2022-07-23T07:13:27;23.70;78.90
7708;DHT22;3896;48.758;8.888;2022-07-23T07:15:53;23.70;80.50
7708;DHT22;3896;48.758;8.888;2022-07-23T07:18:18;23.60;80.50
7708;DHT22;3896;48.758;8.888;2022-07-23T07:20:44;23.60;81.50
7708;DHT22;3896;48.758;8.888;2022-07-23T07:23:09;23.60;81.70
7708;DHT22;3896;48.758;8.888;2022-07-23T07:25:35;23.60;81.20
7708;DHT22;3896;48.758;8.888;2022-07-23T07:28:01;23.60;82.50
7708;DHT22;3896;48.758;8.888;2022-07-23T07:30:26;23.60;83.30
7708;DHT22;3896;48.758;8.888;2022-07-23T07:32:52;23.60;84.90
7708;DHT22;3896;48.758;8.888;2022-07-23T07:35:18;23.70;84.60
7708;DHT22;3896;48.758;8.888;2022-07-23T07:37:43;23.70;83.10
7708;DHT22;3896;48.758;8.888;2022-07-23T07:40:09;23.70;84.60
7708;DHT22;3896;48.758;8.888;2022-07-23T07:42:43;23.70;86.50
7708;DHT22;3896;48.758;8.888;2022-07-23T07:45:09;23.80;86.00
7708;DHT22;3896;48.758;8.888;2022-07-23T07:47:34;23.80;85.70
7708;DHT22;3896;48.758;8.888;2022-07-23T07:50:00;23.90;85.30
7708;DHT22;3896;48.758;8.888;2022-07-23T07:52:26;23.90;85.00
7708;DHT22;3896;48.758;8.888;2022-07-23T07:54:51;23.90;85.10
7708;DHT22;3896;48.758;8.888;2022-07-23T07:57:17;24.00;84.90
7708;DHT22;3896;48.758;8.888;2022-07-23T07:59:42;24.00;84.40
7708;DHT22;3896;48.758;8.888;2022-07-23T08:02:08;24.00;82.50
7708;DHT22;3896;48.758;8.888;2022-07-23T08:04:34;24.00;81.50
7708;DHT22;3896;48.758;8.888;2022-07-23T08:06:59;24.00;80.10
7708;DHT22;3896;48.758;8.888;2022-07-23T08:09:27;24.10;79.80
7708;DHT22;3896;48.758;8.888;2022-07-23T08:11:53;24.10;78.90
7708;DHT22;3896;48.758;8.888;2022-07-23T08:14:18;24.10;78.10
7708;DHT22;3896;48.758;8.888;2022-07-23T08:16:44;24.20;77.60
7708;DHT22;3896;48.758;8.888;2022-07-23T08:19:09;24.20;77.70
7708;DHT22;3896;48.758;8.888;2022-07-23T08:21:35;24.30;77.70
7708;DHT22;3896;48.758;8.888;2022-07-23T08:24:00;24.30;77.10
7708;DHT22;3896;48.758;8.888;2022-07-23T08:26:26;24.40;76.60
7708;DHT22;3896;48.758;8.888;2022-07-23T08:28:51;24.50;76.10
7708;DHT22;3896;48.758;8.888;2022-07-23T08:31:17;24.60;76.10
7708;DHT22;3896;48.758;8.888;2022-07-23T08:33:44;24.60;76.20
7708;DHT22;3896;48.758;8.888;2022-07-23T08:36:09;24.70;76.10
7708;DHT22;3896;48.758;8.888;2022-07-23T08:38:35;24.80;75.00
7708;DHT22;3896;48.758;8.888;2022-07-23T08:41:01;24.80;74.20
7708;DHT22;3896;48.758;8.888;2022-07-23T08:43:30;24.90;74.50
7708;DHT22;3896;48.758;8.888;2022-07-23T08:45:57;25.00;72.30
7708;DHT22;3896;48.758;8.888;2022-07-23T08:48:30;25.00;71.40
7708;DHT22;3896;48.758;8.888;2022-07-23T08:50:58;25.20;71.20
7708;DHT22;3896;48.758;8.888;2022-07-23T08:53:26;25.30;71.20
7708;DHT22;3896;48.758;8.888;2022-07-23T08:55:55;25.40;70.00
7708;DHT22;3896;48.758;8.888;2022-07-23T08:58:22;25.50;69.30
7708;DHT22;3896;48.758;8.888;2022-07-23T09:00:48;25.70;67.60
7708;DHT22;3896;48.758;8.888;2022-07-23T09:03:22;25.80;67.20
7708;DHT22;3896;48.758;8.888;2022-07-23T09:05:52;26.00;67.30
7708;DHT22;3896;48.758;8.888;2022-07-23T09:08:41;26.00;65.70
7708;DHT22;3896;48.758;8.888;2022-07-23T09:11:09;26.10;65.20
7708;DHT22;3896;48.758;8.888;2022-07-23T09:13:40;26.20;64.20
7708;DHT22;3896;48.758;8.888;2022-07-23T09:16:10;26.40;63.40
7708;DHT22;3896;48.758;8.888;2022-07-23T09:21:25;26.50;62.10
7708;DHT22;3896;48.758;8.888;2022-07-23T09:24:03;26.50;61.50
7708;DHT22;3896;48.758;8.888;2022-07-23T09:26:47;26.60;59.90
7708;DHT22;3896;48.758;8.888;2022-07-23T09:29:24;26.70;60.00
7708;DHT22;3896;48.758;8.888;2022-07-23T09:32:13;26.80;61.20
7708;DHT22;3896;48.758;8.888;2022-07-23T09:34:38;27.00;59.80
7708;DHT22;3896;48.758;8.888;2022-07-23T09:37:15;27.10;58.30
7708;DHT22;3896;48.758;8.888;2022-07-23T09:39:41;27.30;57.80
7708;DHT22;3896;48.758;8.888;2022-07-23T09:42:23;27.50;58.60
7708;DHT22;3896;48.758;8.888;2022-07-23T09:44:53;27.60;57.30
7708;DHT22;3896;48.758;8.888;2022-07-23T09:47:19;27.80;56.70
7708;DHT22;3896;48.758;8.888;2022-07-23T09:50:05;27.90;56.20
7708;DHT22;3896;48.758;8.888;2022-07-23T09:52:35;28.00;57.50
7708;DHT22;3896;48.758;8.888;2022-07-23T09:55:04;28.10;56.70
7708;DHT22;3896;48.758;8.888;2022-07-23T09:57:31;28.30;57.10
7708;DHT22;3896;48.758;8.888;2022-07-23T10:00:00;28.40;56.80
7708;DHT22;3896;48.758;8.888;2022-07-23T10:02:28;28.50;55.70
7708;DHT22;3896;48.758;8.888;2022-07-23T10:04:56;28.60;55.00
7708;DHT22;3896;48.758;8.888;2022-07-23T10:07:24;28.70;55.40
7708;DHT22;3896;48.758;8.888;2022-07-23T10:09:53;28.80;54.90
7708;DHT22;3896;48.758;8.888;2022-07-23T10:12:19;28.90;55.10
7708;DHT22;3896;48.758;8.888;2022-07-23T10:14:49;28.90;54.40
7708;DHT22;3896;48.758;8.888;2022-07-23T10:17:16;29.10;53.80
7708;DHT22;3896;48.758;8.888;2022-07-23T10:19:42;29.20;54.10
7708;DHT22;3896;48.758;8.888;2022-07-23T10:22:13;29.20;53.10
7708;DHT22;3896;48.758;8.888;2022-07-23T10:30:52;29.50;51.40
7708;DHT22;3896;48.758;8.888;2022-07-23T10:38:54;29.80;51.60
7708;DHT22;3896;48.758;8.888;2022-07-23T10:41:38;30.00;51.20
7708;DHT22;3896;48.758;8.888;2022-07-23T10:44:21;30.10;51.10
7708;DHT22;3896;48.758;8.888;2022-07-23T10:47:03;30.30;51.60
7708;DHT22;3896;48.758;8.888;2022-07-23T10:49:30;30.40;50.40
7708;DHT22;3896;48.758;8.888;2022-07-23T10:54:40;30.60;49.20
7708;DHT22;3896;48.758;8.888;2022-07-23T10:57:07;30.80;49.00
7708;DHT22;3896;48.758;8.888;2022-07-23T11:02:31;31.00;48.20
7708;DHT22;3896;48.758;8.888;2022-07-23T11:05:17;31.20;47.80
7708;DHT22;3896;48.758;8.888;2022-07-23T11:10:35;31.50;48.40
7708;DHT22;3896;48.758;8.888;2022-07-23T11:36:57;32.40;45.90
7708;DHT22;3896;48.758;8.888;2022-07-23T11:39:25;32.60;45.50
7708;DHT22;3896;48.758;8.888;2022-07-23T11:41:51;32.70;45.80
7708;DHT22;3896;48.758;8.888;2022-07-23T11:44:31;32.80;45.30
7708;DHT22;3896;48.758;8.888;2022-07-23T11:47:02;32.90;45.60
7708;DHT22;3896;48.758;8.888;2022-07-23T11:49:28;33.00;45.20
7708;DHT22;3896;48.758;8.888;2022-07-23T11:52:12;33.00;45.40
7708;DHT22;3896;48.758;8.888;2022-07-23T11:57:17;33.20;45.30
7708;DHT22;3896;48.758;8.888;2022-07-23T11:59:43;33.40;46.00
7708;DHT22;3896;48.758;8.888;2022-07-23T12:02:11;33.50;44.90
7708;DHT22;3896;48.758;8.888;2022-07-23T12:04:45;33.60;44.80
7708;DHT22;3896;48.758;8.888;2022-07-23T12:07:31;33.70;44.30
7708;DHT22;3896;48.758;8.888;2022-07-23T12:10:01;33.70;44.50
7708;DHT22;3896;48.758;8.888;2022-07-23T12:12:26;33.90;44.40
7708;DHT22;3896;48.758;8.888;2022-07-23T12:14:58;34.00;43.40
7708;DHT22;3896;48.758;8.888;2022-07-23T12:17:29;34.10;43.20
7708;DHT22;3896;48.758;8.888;2022-07-23T12:19:56;34.20;42.60
7708;DHT22;3896;48.758;8.888;2022-07-23T12:22:24;34.30;42.80
7708;DHT22;3896;48.758;8.888;2022-07-23T12:24:55;34.40;42.40
7708;DHT22;3896;48.758;8.888;2022-07-23T12:27:22;34.40;42.20
7708;DHT22;3896;48.758;8.888;2022-07-23T12:29:48;34.50;43.00
7708;DHT22;3896;48.758;8.888;2022-07-23T12:34:49;34.70;42.10
7708;DHT22;3896;48.758;8.888;2022-07-23T12:37:34;34.80;41.80
7708;DHT22;3896;48.758;8.888;2022-07-23T12:40:19;34.80;41.70
7708;DHT22;3896;48.758;8.888;2022-07-23T12:42:48;34.90;41.30
7708;DHT22;3896;48.758;8.888;2022-07-23T12:45:20;34.90;41.20
7708;DHT22;3896;48.758;8.888;2022-07-23T12:48:03;35.00;40.60
7708;DHT22;3896;48.758;8.888;2022-07-23T12:51:00;35.00;41.00
7708;DHT22;3896;48.758;8.888;2022-07-23T12:53:49;35.00;40.70
7708;DHT22;3896;48.758;8.888;2022-07-23T12:56:15;35.10;40.40
7708;DHT22;3896;48.758;8.888;2022-07-23T12:59:30;35.10;40.70
7708;DHT22;3896;48.758;8.888;2022-07-23T13:01:37;35.10;40.30
7708;DHT22;3896;48.758;8.888;2022-07-23T13:04:18;35.20;40.40
7708;DHT22;3896;48.758;8.888;2022-07-23T13:06:58;35.20;40.00
7708;DHT22;3896;48.758;8.888;2022-07-23T13:09:28;35.20;40.10
7708;DHT22;3896;48.758;8.888;2022-07-23T13:11:55;35.30;40.30
7708;DHT22;3896;48.758;8.888;2022-07-23T13:14:21;35.30;40.10
7708;DHT22;3896;48.758;8.888;2022-07-23T13:16:49;35.40;40.10
7708;DHT22;3896;48.758;8.888;2022-07-23T13:19:14;35.40;40.00
7708;DHT22;3896;48.758;8.888;2022-07-23T13:21:41;35.40;39.50
7708;DHT22;3896;48.758;8.888;2022-07-23T13:24:08;35.50;39.10
7708;DHT22;3896;48.758;8.888;2022-07-23T13:26:33;35.50;38.90
7708;DHT22;3896;48.758;8.888;2022-07-23T13:28:59;35.60;39.20
7708;DHT22;3896;48.758;8.888;2022-07-23T13:31:25;35.60;38.70
7708;DHT22;3896;48.758;8.888;2022-07-23T13:33:50;35.70;39.20
7708;DHT22;3896;48.758;8.888;2022-07-23T13:36:16;35.80;39.40
7708;DHT22;3896;48.758;8.888;2022-07-23T13:38:41;36.00;39.00
7708;DHT22;3896;48.758;8.888;2022-07-23T13:41:07;36.10;38.50
7708;DHT22;3896;48.758;8.888;2022-07-23T13:43:34;36.20;37.80
7708;DHT22;3896;48.758;8.888;2022-07-23T13:46:00;36.30;38.70
7708;DHT22;3896;48.758;8.888;2022-07-23T13:48:26;36.40;38.60
7708;DHT22;3896;48.758;8.888;2022-07-23T13:50:52;36.50;38.40
7708;DHT22;3896;48.758;8.888;2022-07-23T13:53:22;36.70;39.00
7708;DHT22;3896;48.758;8.888;2022-07-23T13:55:50;36.80;38.00
7708;DHT22;3896;48.758;8.888;2022-07-23T13:58:17;36.90;37.90
7708;DHT22;3896;48.758;8.888;2022-07-23T14:00:46;36.90;37.80
7708;DHT22;3896;48.758;8.888;2022-07-23T14:03:12;37.10;37.20
7708;DHT22;3896;48.758;8.888;2022-07-23T14:05:38;37.20;37.60
7708;DHT22;3896;48.758;8.888;2022-07-23T14:08:04;37.30;37.50
7708;DHT22;3896;48.758;8.888;2022-07-23T14:10:30;37.40;37.60
7708;DHT22;3896;48.758;8.888;2022-07-23T14:12:56;37.50;36.40
7708;DHT22;3896;48.758;8.888;2022-07-23T14:15:24;37.70;35.40
7708;DHT22;3896;48.758;8.888;2022-07-23T14:17:53;37.80;35.40
7708;DHT22;3896;48.758;8.888;2022-07-23T14:20:19;37.90;34.60
7708;DHT22;3896;48.758;8.888;2022-07-23T14:22:45;38.00;34.00
7708;DHT22;3896;48.758;8.888;2022-07-23T14:25:12;38.10;34.30
7708;DHT22;3896;48.758;8.888;2022-07-23T14:27:38;38.20;34.40
7708;DHT22;3896;48.758;8.888;2022-07-23T14:30:05;38.30;34.40
7708;DHT22;3896;48.758;8.888;2022-07-23T14:32:31;38.40;34.50
7708;DHT22;3896;48.758;8.888;2022-07-23T14:34:57;38.50;33.70
7708;DHT22;3896;48.758;8.888;2022-07-23T14:37:23;38.50;33.40
7708;DHT22;3896;48.758;8.888;2022-07-23T14:39:50;38.60;33.90
7708;DHT22;3896;48.758;8.888;2022-07-23T14:42:15;38.70;33.50
7708;DHT22;3896;48.758;8.888;2022-07-23T14:44:41;38.80;33.50
7708;DHT22;3896;48.758;8.888;2022-07-23T14:47:08;38.90;33.70
7708;DHT22;3896;48.758;8.888;2022-07-23T14:49:34;38.90;33.70
7708;DHT22;3896;48.758;8.888;2022-07-23T14:52:00;39.00;33.10
7708;DHT22;3896;48.758;8.888;2022-07-23T14:54:27;39.00;33.40
7708;DHT22;3896;48.758;8.888;2022-07-23T14:56:54;39.10;33.30
7708;DHT22;3896;48.758;8.888;2022-07-23T14:59:20;39.10;33.10
7708;DHT22;3896;48.758;8.888;2022-07-23T15:01:46;39.10;33.20
7708;DHT22;3896;48.758;8.888;2022-07-23T15:04:11;39.10;33.10
7708;DHT22;3896;48.758;8.888;2022-07-23T15:06:37;39.10;32.50
7708;DHT22;3896;48.758;8.888;2022-07-23T15:09:05;39.10;32.30
7708;DHT22;3896;48.758;8.888;2022-07-23T15:11:31;39.10;32.60
7708;DHT22;3896;48.758;8.888;2022-07-23T15:14:03;39.10;33.10
7708;DHT22;3896;48.758;8.888;2022-07-23T15:16:28;39.10;33.20
7708;DHT22;3896;48.758;8.888;2022-07-23T15:18:54;39.10;33.40
7708;DHT22;3896;48.758;8.888;2022-07-23T15:21:20;39.00;33.30
7708;DHT22;3896;48.758;8.888;2022-07-23T15:23:46;39.00;33.00
7708;DHT22;3896;48.758;8.888;2022-07-23T15:26:12;38.90;33.30
7708;DHT22;3896;48.758;8.888;2022-07-23T15:28:40;38.80;33.00
7708;DHT22;3896;48.758;8.888;2022-07-23T15:31:06;38.70;33.10
7708;DHT22;3896;48.758;8.888;2022-07-23T15:33:31;38.60;33.60
7708;DHT22;3896;48.758;8.888;2022-07-23T15:35:57;38.60;34.00
7708;DHT22;3896;48.758;8.888;2022-07-23T15:38:25;38.50;33.80
7708;DHT22;3896;48.758;8.888;2022-07-23T15:40:51;38.40;33.40
7708;DHT22;3896;48.758;8.888;2022-07-23T15:43:17;38.30;33.70
7708;DHT22;3896;48.758;8.888;2022-07-23T15:45:43;38.10;33.90
7708;DHT22;3896;48.758;8.888;2022-07-23T15:48:09;38.00;34.40
7708;DHT22;3896;48.758;8.888;2022-07-23T15:50:35;37.80;34.40
7708;DHT22;3896;48.758;8.888;2022-07-23T15:53:01;37.60;34.80
7708;DHT22;3896;48.758;8.888;2022-07-23T15:55:26;37.40;35.20
7708;DHT22;3896;48.758;8.888;2022-07-23T15:57:53;37.30;35.30
7708;DHT22;3896;48.758;8.888;2022-07-23T16:00:19;37.10;35.60
7708;DHT22;3896;48.758;8.888;2022-07-23T16:02:45;36.90;35.40
7708;DHT22;3896;48.758;8.888;2022-07-23T16:05:10;36.80;35.70
7708;DHT22;3896;48.758;8.888;2022-07-23T16:07:37;36.60;36.30
7708;DHT22;3896;48.758;8.888;2022-07-23T16:10:05;36.50;36.50
7708;DHT22;3896;48.758;8.888;2022-07-23T16:12:30;36.40;36.40
7708;DHT22;3896;48.758;8.888;2022-07-23T16:14:56;36.30;36.70
7708;DHT22;3896;48.758;8.888;2022-07-23T16:17:22;36.10;37.30
7708;DHT22;3896;48.758;8.888;2022-07-23T16:19:48;36.00;37.10
7708;DHT22;3896;48.758;8.888;2022-07-23T16:22:13;35.90;37.50
7708;DHT22;3896;48.758;8.888;2022-07-23T16:24:41;35.80;37.90
7708;DHT22;3896;48.758;8.888;2022-07-23T16:27:07;35.70;38.00
7708;DHT22;3896;48.758;8.888;2022-07-23T16:29:33;35.50;38.20
7708;DHT22;3896;48.758;8.888;2022-07-23T16:31:58;35.40;38.10
7708;DHT22;3896;48.758;8.888;2022-07-23T16:34:24;35.30;38.40
7708;DHT22;3896;48.758;8.888;2022-07-23T16:36:49;35.10;38.10
7708;DHT22;3896;48.758;8.888;2022-07-23T16:39:15;35.00;38.50
7708;DHT22;3896;48.758;8.888;2022-07-23T16:41:41;34.80;38.80
7708;DHT22;3896;48.758;8.888;2022-07-23T16:44:07;34.70;39.40
7708;DHT22;3896;48.758;8.888;2022-07-23T16:46:32;34.60;39.30
7708;DHT22;3896;48.758;8.888;2022-07-23T16:48:58;34.50;40.30
7708;DHT22;3896;48.758;8.888;2022-07-23T16:51:24;34.30;39.60
7708;DHT22;3896;48.758;8.888;2022-07-23T16:53:49;34.20;39.60